CheckWX is a tool to help pilots better visualize weather data.  It is not intended as a substitute for an official pre-flight weather briefing.

18:03:25 UTC

KHNR METAR
Harlan Municipal Airport
Harlan, Iowa, USA
Current

8 mins ago

KHNR 211755Z AUTO 33016G25KT 10SM OVC016 03/01 A3003 RMK AO2
Observed
Nov-21 @ 17:55 UTC
Wind
  • 330° at 16 KTS
  • Gusting to 25 KTS
Visibility
10 SM
Flight Rules
MVFR
Cloud Levels
  • Overcast at 1,600' AGL
Temperature
C / 37°F
Dewpoint
C / 34°F
Humidity
87%
Altimeter
30.03" Hg
Pressure
1016.92 hPa
Previous

28 mins ago

KHNR 211735Z AUTO 32019G27KT 10SM OVC013 02/01 A3004 RMK AO2
Observed
Nov-21 @ 17:35 UTC
Wind
  • 320° at 19 KTS
  • Gusting to 27 KTS
Visibility
10 SM
Flight Rules
MVFR
Cloud Levels
  • Overcast at 1,300' AGL
Temperature
C / 36°F
Dewpoint
C / 34°F
Humidity
93%
Altimeter
30.04" Hg
Pressure
1017.32 hPa
Previous

48 mins ago

KHNR 211715Z AUTO 33019G24KT 10SM OVC013 02/01 A3003 RMK AO2
Observed
Nov-21 @ 17:15 UTC
Wind
  • 330° at 19 KTS
  • Gusting to 24 KTS
Visibility
10 SM
Flight Rules
MVFR
Cloud Levels
  • Overcast at 1,300' AGL
Temperature
C / 36°F
Dewpoint
C / 34°F
Humidity
93%
Altimeter
30.03" Hg
Pressure
1016.92 hPa